sensor_id;sensor_type;location;lat;lon;timestamp;pressure;altitude;pressure_sealevel;temperature;humidity
3960;BME280;1994;48.640;8.894;2023-03-23T00:01:49;95617.72;;;12.92;60.91
3960;BME280;1994;48.640;8.894;2023-03-23T00:04:16;95616.41;;;12.84;60.98
3960;BME280;1994;48.640;8.894;2023-03-23T00:06:42;95602.66;;;12.99;60.70
3960;BME280;1994;48.640;8.894;2023-03-23T00:09:12;95595.91;;;12.98;60.69
3960;BME280;1994;48.640;8.894;2023-03-23T00:11:42;95599.00;;;13.00;60.91
3960;BME280;1994;48.640;8.894;2023-03-23T00:14:10;95597.16;;;12.95;61.19
3960;BME280;1994;48.640;8.894;2023-03-23T00:16:41;95594.56;;;12.90;61.23
3960;BME280;1994;48.640;8.894;2023-03-23T00:19:12;95600.53;;;12.81;61.82
3960;BME280;1994;48.640;8.894;2023-03-23T00:21:42;95590.91;;;12.86;61.65
3960;BME280;1994;48.640;8.894;2023-03-23T00:24:16;95592.22;;;12.89;61.37
3960;BME280;1994;48.640;8.894;2023-03-23T00:26:48;95595.34;;;12.96;61.15
3960;BME280;1994;48.640;8.894;2023-03-23T00:29:17;95584.72;;;12.97;60.82
3960;BME280;1994;48.640;8.894;2023-03-23T00:31:45;95578.75;;;12.97;61.15
3960;BME280;1994;48.640;8.894;2023-03-23T00:34:17;95573.81;;;13.00;60.55
3960;BME280;1994;48.640;8.894;2023-03-23T00:36:46;95571.44;;;12.99;60.58
3960;BME280;1994;48.640;8.894;2023-03-23T00:39:13;95573.00;;;13.00;59.92
3960;BME280;1994;48.640;8.894;2023-03-23T00:41:45;95564.41;;;13.09;59.21
3960;BME280;1994;48.640;8.894;2023-03-23T00:44:12;95563.63;;;13.24;58.64
3960;BME280;1994;48.640;8.894;2023-03-23T00:46:46;95561.53;;;13.21;58.30
3960;BME280;1994;48.640;8.894;2023-03-23T00:49:17;95548.53;;;13.31;57.69
3960;BME280;1994;48.640;8.894;2023-03-23T00:51:44;95555.03;;;13.38;57.70
3960;BME280;1994;48.640;8.894;2023-03-23T00:54:11;95552.69;;;13.32;58.19
3960;BME280;1994;48.640;8.894;2023-03-23T00:56:37;95558.94;;;13.31;58.34
3960;BME280;1994;48.640;8.894;2023-03-23T00:59:05;95544.88;;;13.32;58.48
3960;BME280;1994;48.640;8.894;2023-03-23T01:01:31;95540.19;;;13.29;58.54
3960;BME280;1994;48.640;8.894;2023-03-23T01:04:01;95546.97;;;13.30;58.74
3960;BME280;1994;48.640;8.894;2023-03-23T01:06:32;95560.00;;;13.25;58.68
3960;BME280;1994;48.640;8.894;2023-03-23T01:09:02;95543.84;;;13.28;59.02
3960;BME280;1994;48.640;8.894;2023-03-23T01:11:28;95542.28;;;13.27;59.30
3960;BME280;1994;48.640;8.894;2023-03-23T01:13:55;95553.75;;;13.26;59.70
3960;BME280;1994;48.640;8.894;2023-03-23T01:16:21;95553.25;;;13.14;59.31
3960;BME280;1994;48.640;8.894;2023-03-23T01:18:47;95542.84;;;13.14;59.33
3960;BME280;1994;48.640;8.894;2023-03-23T01:21:16;95541.00;;;13.14;59.42
3960;BME280;1994;48.640;8.894;2023-03-23T01:23:43;95545.94;;;13.16;59.34
3960;BME280;1994;48.640;8.894;2023-03-23T01:26:15;95537.66;;;13.04;59.40
3960;BME280;1994;48.640;8.894;2023-03-23T01:29:01;95520.75;;;12.96;59.90
3960;BME280;1994;48.640;8.894;2023-03-23T01:31:27;95519.97;;;12.86;60.78
3960;BME280;1994;48.640;8.894;2023-03-23T01:33:53;95516.84;;;12.94;60.44
3960;BME280;1994;48.640;8.894;2023-03-23T01:36:27;95521.28;;;12.83;60.99
3960;BME280;1994;48.640;8.894;2023-03-23T01:38:55;95507.00;;;12.81;61.51
3960;BME280;1994;48.640;8.894;2023-03-23T01:41:22;95512.19;;;12.81;61.59
3960;BME280;1994;48.640;8.894;2023-03-23T01:46:43;95504.38;;;12.76;62.05
3960;BME280;1994;48.640;8.894;2023-03-23T01:49:15;95501.25;;;12.74;62.46
3960;BME280;1994;48.640;8.894;2023-03-23T01:52:11;95503.84;;;12.69;62.79
3960;BME280;1994;48.640;8.894;2023-03-23T01:54:43;95504.38;;;12.66;63.14
3960;BME280;1994;48.640;8.894;2023-03-23T01:57:16;95514.28;;;12.59;63.76
3960;BME280;1994;48.640;8.894;2023-03-23T01:59:51;95503.09;;;12.63;63.58
3960;BME280;1994;48.640;8.894;2023-03-23T02:02:21;95501.78;;;12.61;63.32
3960;BME280;1994;48.640;8.894;2023-03-23T02:04:48;95501.28;;;12.54;63.75
3960;BME280;1994;48.640;8.894;2023-03-23T02:07:17;95507.50;;;12.38;64.32
3960;BME280;1994;48.640;8.894;2023-03-23T02:09:43;95507.50;;;12.33;64.57
3960;BME280;1994;48.640;8.894;2023-03-23T02:12:09;95503.59;;;12.30;64.84
3960;BME280;1994;48.640;8.894;2023-03-23T02:14:35;95502.28;;;12.18;65.47
3960;BME280;1994;48.640;8.894;2023-03-23T02:17:25;95498.38;;;12.15;65.56
3960;BME280;1994;48.640;8.894;2023-03-23T02:26:43;95490.31;;;11.97;66.73
3960;BME280;1994;48.640;8.894;2023-03-23T02:32:24;95473.69;;;11.83;67.83
3960;BME280;1994;48.640;8.894;2023-03-23T02:34:58;95477.31;;;11.82;68.12
3960;BME280;1994;48.640;8.894;2023-03-23T02:37:31;95469.50;;;11.77;68.49
3960;BME280;1994;48.640;8.894;2023-03-23T02:40:20;95471.06;;;11.78;68.35
3960;BME280;1994;48.640;8.894;2023-03-23T02:42:51;95462.25;;;11.79;68.18
3960;BME280;1994;48.640;8.894;2023-03-23T02:45:20;95475.72;;;11.81;68.41
3960;BME280;1994;48.640;8.894;2023-03-23T02:47:50;95465.88;;;11.78;68.64
3960;BME280;1994;48.640;8.894;2023-03-23T02:50:19;95452.91;;;11.73;68.64
3960;BME280;1994;48.640;8.894;2023-03-23T02:52:48;95450.53;;;11.71;68.66
3960;BME280;1994;48.640;8.894;2023-03-23T02:55:18;95455.50;;;11.78;68.62
3960;BME280;1994;48.640;8.894;2023-03-23T02:57:46;95456.53;;;11.77;68.57
3960;BME280;1994;48.640;8.894;2023-03-23T03:00:15;95458.09;;;11.73;68.79
3960;BME280;1994;48.640;8.894;2023-03-23T03:02:44;95448.47;;;11.73;69.01
3960;BME280;1994;48.640;8.894;2023-03-23T03:08:08;95450.84;;;11.90;68.05
3960;BME280;1994;48.640;8.894;2023-03-23T03:13:44;95439.94;;;11.73;68.21
3960;BME280;1994;48.640;8.894;2023-03-23T03:16:29;95434.78;;;11.88;67.56
3960;BME280;1994;48.640;8.894;2023-03-23T03:21:42;95443.56;;;11.87;67.73
3960;BME280;1994;48.640;8.894;2023-03-23T03:24:10;95435.28;;;11.90;67.44
3960;BME280;1994;48.640;8.894;2023-03-23T03:26:46;95439.97;;;12.08;66.79
3960;BME280;1994;48.640;8.894;2023-03-23T03:29:30;95445.69;;;12.15;66.76
3960;BME280;1994;48.640;8.894;2023-03-23T03:32:00;95440.47;;;12.25;66.17
3960;BME280;1994;48.640;8.894;2023-03-23T03:34:31;95444.38;;;12.22;65.98
3960;BME280;1994;48.640;8.894;2023-03-23T03:36:59;95443.38;;;12.23;66.67
3960;BME280;1994;48.640;8.894;2023-03-23T03:39:27;95443.63;;;12.17;67.17
3960;BME280;1994;48.640;8.894;2023-03-23T03:41:53;95448.28;;;12.20;67.04
3960;BME280;1994;48.640;8.894;2023-03-23T03:44:20;95443.59;;;12.12;67.65
3960;BME280;1994;48.640;8.894;2023-03-23T03:46:46;95441.50;;;12.09;67.59
3960;BME280;1994;48.640;8.894;2023-03-23T03:49:13;95440.50;;;12.15;67.58
3960;BME280;1994;48.640;8.894;2023-03-23T03:51:39;95441.03;;;12.27;67.06
3960;BME280;1994;48.640;8.894;2023-03-23T03:54:06;95438.44;;;12.27;66.97
3960;BME280;1994;48.640;8.894;2023-03-23T03:56:32;95437.38;;;12.18;67.16
3960;BME280;1994;48.640;8.894;2023-03-23T03:59:02;95429.59;;;12.18;67.37
3960;BME280;1994;48.640;8.894;2023-03-23T04:01:28;95437.88;;;12.25;67.27
3960;BME280;1994;48.640;8.894;2023-03-23T04:03:54;95434.78;;;12.18;67.48
3960;BME280;1994;48.640;8.894;2023-03-23T04:06:24;95437.13;;;12.24;67.38
3960;BME280;1994;48.640;8.894;2023-03-23T04:08:54;95433.22;;;12.27;66.98
3960;BME280;1994;48.640;8.894;2023-03-23T04:11:21;95446.22;;;12.27;67.07
3960;BME280;1994;48.640;8.894;2023-03-23T04:13:46;95441.03;;;12.32;66.78
3960;BME280;1994;48.640;8.894;2023-03-23T04:16:12;95439.97;;;12.38;66.86
3960;BME280;1994;48.640;8.894;2023-03-23T04:18:38;95439.44;;;12.41;66.71
3960;BME280;1994;48.640;8.894;2023-03-23T04:21:04;95438.94;;;12.44;66.63
3960;BME280;1994;48.640;8.894;2023-03-23T04:23:33;95433.75;;;12.44;66.05
3960;BME280;1994;48.640;8.894;2023-03-23T04:26:01;95442.03;;;12.46;66.03
3960;BME280;1994;48.640;8.894;2023-03-23T04:28:29;95438.94;;;12.49;66.25
3960;BME280;1994;48.640;8.894;2023-03-23T04:31:00;95435.81;;;12.52;65.71
3960;BME280;1994;48.640;8.894;2023-03-23T04:33:28;95424.34;;;12.58;65.60
3960;BME280;1994;48.640;8.894;2023-03-23T04:35:59;95429.59;;;12.48;65.87
3960;BME280;1994;48.640;8.894;2023-03-23T04:38:28;95424.41;;;12.33;66.50
3960;BME280;1994;48.640;8.894;2023-03-23T04:40:54;95431.16;;;12.34;66.35
3960;BME280;1994;48.640;8.894;2023-03-23T04:43:23;95426.19;;;12.42;66.27
3960;BME280;1994;48.640;8.894;2023-03-23T04:46:00;95430.63;;;12.42;66.45
3960;BME280;1994;48.640;8.894;2023-03-23T04:48:29;95428.03;;;12.37;66.35
3960;BME280;1994;48.640;8.894;2023-03-23T04:50:58;95441.03;;;12.32;66.41
3960;BME280;1994;48.640;8.894;2023-03-23T04:53:26;95437.38;;;12.33;66.51
3960;BME280;1994;48.640;8.894;2023-03-23T04:55:51;95439.44;;;12.41;66.54
3960;BME280;1994;48.640;8.894;2023-03-23T04:58:17;95441.53;;;12.39;66.72
3960;BME280;1994;48.640;8.894;2023-03-23T05:00:43;95444.13;;;12.44;66.49
3960;BME280;1994;48.640;8.894;2023-03-23T05:03:18;95447.25;;;12.46;66.79
3960;BME280;1994;48.640;8.894;2023-03-23T05:05:46;95436.09;;;12.50;66.74
3960;BME280;1994;48.640;8.894;2023-03-23T05:08:19;95435.28;;;12.45;66.72
3960;BME280;1994;48.640;8.894;2023-03-23T05:10:53;95439.44;;;12.61;66.19
3960;BME280;1994;48.640;8.894;2023-03-23T05:13:20;95427.50;;;12.60;65.75
3960;BME280;1994;48.640;8.894;2023-03-23T05:15:52;95427.50;;;12.60;65.99
3960;BME280;1994;48.640;8.894;2023-03-23T05:18:18;95425.41;;;12.62;65.55
3960;BME280;1994;48.640;8.894;2023-03-23T05:20:45;95429.28;;;12.64;65.51
3960;BME280;1994;48.640;8.894;2023-03-23T05:23:13;95421.75;;;12.68;65.07
3960;BME280;1994;48.640;8.894;2023-03-23T05:25:39;95429.03;;;12.81;64.35
3960;BME280;1994;48.640;8.894;2023-03-23T05:28:09;95426.94;;;12.83;64.42
3960;BME280;1994;48.640;8.894;2023-03-23T05:30:37;95429.03;;;12.76;64.59
3960;BME280;1994;48.640;8.894;2023-03-23T05:33:04;95422.22;;;12.90;64.19
3960;BME280;1994;48.640;8.894;2023-03-23T05:35:31;95426.44;;;12.71;64.57
3960;BME280;1994;48.640;8.894;2023-03-23T05:37:57;95426.94;;;12.73;64.61
3960;BME280;1994;48.640;8.894;2023-03-23T05:40:23;95423.03;;;12.80;64.71
3960;BME280;1994;48.640;8.894;2023-03-23T05:42:51;95425.88;;;12.79;64.74
3960;BME280;1994;48.640;8.894;2023-03-23T05:45:18;95422.78;;;12.77;65.02
3960;BME280;1994;48.640;8.894;2023-03-23T05:47:47;95430.56;;;12.92;64.82
3960;BME280;1994;48.640;8.894;2023-03-23T05:50:13;95429.00;;;12.91;64.78
3960;BME280;1994;48.640;8.894;2023-03-23T05:52:39;95439.91;;;12.88;65.12
3960;BME280;1994;48.640;8.894;2023-03-23T05:55:07;95444.06;;;12.94;64.95
3960;BME280;1994;48.640;8.894;2023-03-23T05:57:33;95443.03;;;13.00;64.69
3960;BME280;1994;48.640;8.894;2023-03-23T05:59:59;95441.41;;;13.19;64.35
3960;BME280;1994;48.640;8.894;2023-03-23T06:02:30;95449.22;;;13.24;64.31
3960;BME280;1994;48.640;8.894;2023-03-23T06:04:56;95449.72;;;13.26;63.77
3960;BME280;1994;48.640;8.894;2023-03-23T06:07:26;95455.97;;;13.25;64.07
3960;BME280;1994;48.640;8.894;2023-03-23T06:09:55;95457.75;;;13.34;63.81
3960;BME280;1994;48.640;8.894;2023-03-23T06:12:21;95457.47;;;13.36;63.71
3960;BME280;1994;48.640;8.894;2023-03-23T06:14:50;95464.22;;;13.42;63.16
3960;BME280;1994;48.640;8.894;2023-03-23T06:17:17;95466.53;;;13.48;63.19
3960;BME280;1994;48.640;8.894;2023-03-23T06:19:43;95470.94;;;13.48;63.16
3960;BME280;1994;48.640;8.894;2023-03-23T06:22:12;95478.50;;;13.49;63.41
3960;BME280;1994;48.640;8.894;2023-03-23T06:24:38;95478.75;;;13.53;63.50
3960;BME280;1994;48.640;8.894;2023-03-23T06:27:04;95480.00;;;13.60;63.23
3960;BME280;1994;48.640;8.894;2023-03-23T06:29:30;95478.75;;;13.53;63.35
3960;BME280;1994;48.640;8.894;2023-03-23T06:32:02;95484.47;;;13.50;63.28
3960;BME280;1994;48.640;8.894;2023-03-23T06:34:30;95490.72;;;13.44;63.75
3960;BME280;1994;48.640;8.894;2023-03-23T06:36:56;95495.94;;;13.44;63.73
3960;BME280;1994;48.640;8.894;2023-03-23T06:39:23;95493.31;;;13.49;63.47
3960;BME280;1994;48.640;8.894;2023-03-23T06:41:49;95489.66;;;13.50;63.65
3960;BME280;1994;48.640;8.894;2023-03-23T06:44:15;95496.97;;;13.48;63.60
3960;BME280;1994;48.640;8.894;2023-03-23T06:46:42;95498.53;;;13.49;63.73
3960;BME280;1994;48.640;8.894;2023-03-23T06:49:08;95507.88;;;13.50;64.23
3960;BME280;1994;48.640;8.894;2023-03-23T06:51:34;95511.75;;;13.57;63.82
3960;BME280;1994;48.640;8.894;2023-03-23T06:54:00;95508.31;;;13.72;63.51
3960;BME280;1994;48.640;8.894;2023-03-23T06:56:26;95511.47;;;13.64;63.73
3960;BME280;1994;48.640;8.894;2023-03-23T06:58:52;95506.00;;;13.70;63.31
3960;BME280;1994;48.640;8.894;2023-03-23T07:01:18;95502.59;;;13.75;63.30
3960;BME280;1994;48.640;8.894;2023-03-23T07:03:44;95505.72;;;13.72;63.35
3960;BME280;1994;48.640;8.894;2023-03-23T07:06:10;95500.00;;;13.70;63.19
3960;BME280;1994;48.640;8.894;2023-03-23T07:08:37;95513.50;;;13.72;62.88
3960;BME280;1994;48.640;8.894;2023-03-23T07:11:03;95513.50;;;13.72;63.43
3960;BME280;1994;48.640;8.894;2023-03-23T07:13:38;95517.97;;;13.71;63.29
3960;BME280;1994;48.640;8.894;2023-03-23T07:16:07;95523.69;;;13.68;63.70
3960;BME280;1994;48.640;8.894;2023-03-23T07:18:33;95519.78;;;13.66;64.07
3960;BME280;1994;48.640;8.894;2023-03-23T07:20:59;95532.25;;;13.74;63.49
3960;BME280;1994;48.640;8.894;2023-03-23T07:23:25;95525.50;;;13.73;64.04
3960;BME280;1994;48.640;8.894;2023-03-23T07:25:51;95539.84;;;13.70;63.93
3960;BME280;1994;48.640;8.894;2023-03-23T07:28:17;95541.19;;;13.53;64.78
3960;BME280;1994;48.640;8.894;2023-03-23T07:30:44;95551.03;;;13.56;64.63
3960;BME280;1994;48.640;8.894;2023-03-23T07:33:10;95551.84;;;13.56;64.71
3960;BME280;1994;48.640;8.894;2023-03-23T07:35:37;95551.59;;;13.53;65.58
3960;BME280;1994;48.640;8.894;2023-03-23T07:38:04;95546.88;;;13.60;65.79
3960;BME280;1994;48.640;8.894;2023-03-23T07:40:31;95553.13;;;13.64;65.44
3960;BME280;1994;48.640;8.894;2023-03-23T07:43:02;95554.44;;;13.61;65.75
3960;BME280;1994;48.640;8.894;2023-03-23T07:45:29;95549.19;;;13.71;64.52
3960;BME280;1994;48.640;8.894;2023-03-23T07:47:55;95541.59;;;13.80;65.27
3960;BME280;1994;48.640;8.894;2023-03-23T07:50:24;95556.41;;;13.89;65.35
3960;BME280;1994;48.640;8.894;2023-03-23T07:52:55;95547.84;;;13.84;65.82
3960;BME280;1994;48.640;8.894;2023-03-23T07:55:22;95545.72;;;13.91;66.43
3960;BME280;1994;48.640;8.894;2023-03-23T07:57:50;95553.44;;;14.11;65.81
3960;BME280;1994;48.640;8.894;2023-03-23T08:00:18;95559.16;;;14.13;65.84
3960;BME280;1994;48.640;8.894;2023-03-23T08:02:52;95570.06;;;14.15;66.35
3960;BME280;1994;48.640;8.894;2023-03-23T08:05:19;95565.88;;;14.29;65.72
3960;BME280;1994;48.640;8.894;2023-03-23T08:07:47;95562.69;;;14.37;65.85
3960;BME280;1994;48.640;8.894;2023-03-23T08:10:15;95557.97;;;14.44;65.38
3960;BME280;1994;48.640;8.894;2023-03-23T08:12:43;95562.50;;;14.67;65.18
3960;BME280;1994;48.640;8.894;2023-03-23T08:15:11;95559.47;;;14.55;65.22
3960;BME280;1994;48.640;8.894;2023-03-23T08:17:41;95566.16;;;14.66;65.24
3960;BME280;1994;48.640;8.894;2023-03-23T08:20:09;95566.84;;;14.76;65.08
3960;BME280;1994;48.640;8.894;2023-03-23T08:22:39;95582.72;;;14.80;65.78
3960;BME280;1994;48.640;8.894;2023-03-23T08:25:08;95578.34;;;14.75;65.77
3960;BME280;1994;48.640;8.894;2023-03-23T08:27:34;95588.97;;;14.84;64.88
3960;BME280;1994;48.640;8.894;2023-03-23T08:30:00;95594.19;;;14.84;65.97
3960;BME280;1994;48.640;8.894;2023-03-23T08:32:28;95588.84;;;14.99;65.14
3960;BME280;1994;48.640;8.894;2023-03-23T08:35:00;95573.69;;;15.01;63.99
3960;BME280;1994;48.640;8.894;2023-03-23T08:37:26;95593.09;;;14.90;64.24
3960;BME280;1994;48.640;8.894;2023-03-23T08:39:54;95576.28;;;15.06;64.15
3960;BME280;1994;48.640;8.894;2023-03-23T08:42:20;95579.16;;;15.04;64.91
3960;BME280;1994;48.640;8.894;2023-03-23T08:44:46;95591.41;;;15.04;64.99
3960;BME280;1994;48.640;8.894;2023-03-23T08:47:11;95599.66;;;15.16;64.49
3960;BME280;1994;48.640;8.894;2023-03-23T08:49:37;95598.06;;;15.20;64.42
3960;BME280;1994;48.640;8.894;2023-03-23T08:52:03;95599.09;;;14.90;65.07
3960;BME280;1994;48.640;8.894;2023-03-23T08:54:29;95601.50;;;14.82;65.92
3960;BME280;1994;48.640;8.894;2023-03-23T08:57:02;95618.13;;;14.86;65.52
3960;BME280;1994;48.640;8.894;2023-03-23T08:59:28;95612.31;;;14.99;65.19
3960;BME280;1994;48.640;8.894;2023-03-23T09:01:54;95612.31;;;14.99;66.05
3960;BME280;1994;48.640;8.894;2023-03-23T09:04:20;95615.38;;;15.06;65.73
3960;BME280;1994;48.640;8.894;2023-03-23T09:06:46;95619.16;;;14.90;66.22
3960;BME280;1994;48.640;8.894;2023-03-23T09:09:12;95626.25;;;14.84;66.21
3960;BME280;1994;48.640;8.894;2023-03-23T09:11:39;95628.16;;;14.69;66.15
3960;BME280;1994;48.640;8.894;2023-03-23T09:14:07;95625.63;;;14.59;66.40
3960;BME280;1994;48.640;8.894;2023-03-23T09:16:33;95620.88;;;14.71;66.41
3960;BME280;1994;48.640;8.894;2023-03-23T09:19:00;95619.16;;;14.90;65.83
3960;BME280;1994;48.640;8.894;2023-03-23T09:21:28;95626.47;;;14.93;65.50
3960;BME280;1994;48.640;8.894;2023-03-23T09:23:55;95624.31;;;15.00;64.76
3960;BME280;1994;48.640;8.894;2023-03-23T09:26:25;95634.81;;;14.90;65.18
3960;BME280;1994;48.640;8.894;2023-03-23T09:28:51;95644.22;;;14.86;66.06
3960;BME280;1994;48.640;8.894;2023-03-23T09:31:17;95649.94;;;14.93;65.84
3960;BME280;1994;48.640;8.894;2023-03-23T09:33:46;95657.38;;;15.04;65.73
3960;BME280;1994;48.640;8.894;2023-03-23T09:36:12;95665.13;;;14.76;67.13
3960;BME280;1994;48.640;8.894;2023-03-23T09:38:40;95673.59;;;14.58;67.56
3960;BME280;1994;48.640;8.894;2023-03-23T09:41:55;95661.59;;;14.57;66.96
3960;BME280;1994;48.640;8.894;2023-03-23T09:47:49;95657.38;;;14.71;67.99
3960;BME280;1994;48.640;8.894;2023-03-23T09:50:30;95654.63;;;14.91;68.25
3960;BME280;1994;48.640;8.894;2023-03-23T09:53:08;95653.19;;;15.08;68.38
3960;BME280;1994;48.640;8.894;2023-03-23T09:55:37;95648.00;;;15.42;67.05
3960;BME280;1994;48.640;8.894;2023-03-23T09:58:33;95652.16;;;15.95;64.69
3960;BME280;1994;48.640;8.894;2023-03-23T10:01:31;95653.06;;;16.09;63.62
3960;BME280;1994;48.640;8.894;2023-03-23T10:06:58;95643.94;;;15.83;64.27
3960;BME280;1994;48.640;8.894;2023-03-23T10:09:25;95640.72;;;15.67;65.31
3960;BME280;1994;48.640;8.894;2023-03-23T10:14:52;95648.81;;;15.66;66.06
3960;BME280;1994;48.640;8.894;2023-03-23T10:17:42;95652.22;;;15.90;65.55
3960;BME280;1994;48.640;8.894;2023-03-23T10:26:04;95657.94;;;16.39;64.61
3960;BME280;1994;48.640;8.894;2023-03-23T10:31:09;95656.56;;;17.02;61.23
3960;BME280;1994;48.640;8.894;2023-03-23T10:33:41;95658.97;;;17.17;60.28
3960;BME280;1994;48.640;8.894;2023-03-23T10:36:35;95662.09;;;16.45;62.60
3960;BME280;1994;48.640;8.894;2023-03-23T10:39:13;95658.84;;;16.71;61.62
3960;BME280;1994;48.640;8.894;2023-03-23T10:41:42;95658.63;;;17.37;59.12
3960;BME280;1994;48.640;8.894;2023-03-23T10:44:24;95660.53;;;17.82;58.85
3960;BME280;1994;48.640;8.894;2023-03-23T10:47:06;95665.41;;;18.42;56.07
3960;BME280;1994;48.640;8.894;2023-03-23T10:49:41;95670.03;;;17.78;58.04
3960;BME280;1994;48.640;8.894;2023-03-23T10:52:37;95676.16;;;17.04;59.99
3960;BME280;1994;48.640;8.894;2023-03-23T10:57:40;95660.59;;;16.34;61.99
3960;BME280;1994;48.640;8.894;2023-03-23T11:02:45;95667.31;;;16.45;63.26
3960;BME280;1994;48.640;8.894;2023-03-23T11:05:20;95656.69;;;16.13;63.65
3960;BME280;1994;48.640;8.894;2023-03-23T11:07:56;95668.91;;;16.17;63.58
3960;BME280;1994;48.640;8.894;2023-03-23T11:10:40;95656.38;;;16.14;64.06
3960;BME280;1994;48.640;8.894;2023-03-23T11:13:13;95671.53;;;16.17;64.21
3960;BME280;1994;48.640;8.894;2023-03-23T11:15:42;95651.50;;;15.84;61.53
3960;BME280;1994;48.640;8.894;2023-03-23T11:18:18;95650.50;;;16.04;63.51
3960;BME280;1994;48.640;8.894;2023-03-23T11:20:47;95649.13;;;15.88;64.04
3960;BME280;1994;48.640;8.894;2023-03-23T11:23:25;95650.81;;;15.74;64.59
3960;BME280;1994;48.640;8.894;2023-03-23T11:26:25;95641.59;;;16.05;63.96
3960;BME280;1994;48.640;8.894;2023-03-23T11:29:15;95638.78;;;16.01;61.84
3960;BME280;1994;48.640;8.894;2023-03-23T11:34:37;95644.38;;;15.90;63.57
3960;BME280;1994;48.640;8.894;2023-03-23T11:37:14;95637.59;;;15.89;62.22
3960;BME280;1994;48.640;8.894;2023-03-23T11:39:47;95637.94;;;16.06;62.95
3960;BME280;1994;48.640;8.894;2023-03-23T11:42:56;95638.81;;;16.20;62.47
3960;BME280;1994;48.640;8.894;2023-03-23T11:45:38;95640.25;;;16.31;62.98
3960;BME280;1994;48.640;8.894;2023-03-23T11:48:40;95631.25;;;16.18;62.79
3960;BME280;1994;48.640;8.894;2023-03-23T11:51:29;95632.06;;;16.19;61.86
3960;BME280;1994;48.640;8.894;2023-03-23T11:54:17;95638.50;;;16.26;61.09
3960;BME280;1994;48.640;8.894;2023-03-23T11:56:46;95640.25;;;16.54;60.06
3960;BME280;1994;48.640;8.894;2023-03-23T11:59:31;95619.13;;;16.51;58.65
3960;BME280;1994;48.640;8.894;2023-03-23T12:02:32;95625.50;;;16.45;59.59
3960;BME280;1994;48.640;8.894;2023-03-23T12:14:49;95623.66;;;16.64;58.83
3960;BME280;1994;48.640;8.894;2023-03-23T12:17:04;95636.78;;;16.96;58.08
3960;BME280;1994;48.640;8.894;2023-03-23T12:31:03;95628.06;;;17.19;57.48
3960;BME280;1994;48.640;8.894;2023-03-23T12:45:37;95615.91;;;18.00;54.65
3960;BME280;1994;48.640;8.894;2023-03-23T12:48:07;95605.31;;;17.33;56.15
3960;BME280;1994;48.640;8.894;2023-03-23T12:50:45;95612.75;;;17.58;57.07
3960;BME280;1994;48.640;8.894;2023-03-23T12:53:25;95608.31;;;17.72;58.40
3960;BME280;1994;48.640;8.894;2023-03-23T12:56:10;95614.63;;;17.71;57.20
3960;BME280;1994;48.640;8.894;2023-03-23T12:58:47;95605.00;;;17.66;55.73
3960;BME280;1994;48.640;8.894;2023-03-23T13:01:22;95607.84;;;17.38;56.19
3960;BME280;1994;48.640;8.894;2023-03-23T13:04:01;95614.56;;;17.12;56.72
3960;BME280;1994;48.640;8.894;2023-03-23T13:06:40;95595.31;;;17.03;56.82
3960;BME280;1994;48.640;8.894;2023-03-23T13:09:53;95593.03;;;17.47;56.20
3960;BME280;1994;48.640;8.894;2023-03-23T13:12:21;95578.25;;;17.24;56.60
3960;BME280;1994;48.640;8.894;2023-03-23T13:20:32;95578.78;;;17.53;54.92
3960;BME280;1994;48.640;8.894;2023-03-23T13:26:03;95562.50;;;17.56;56.77
3960;BME280;1994;48.640;8.894;2023-03-23T13:28:33;95567.56;;;17.52;56.11
3960;BME280;1994;48.640;8.894;2023-03-23T13:31:38;95556.50;;;17.55;55.36
3960;BME280;1994;48.640;8.894;2023-03-23T13:34:24;95550.31;;;17.92;54.79
3960;BME280;1994;48.640;8.894;2023-03-23T13:42:56;95543.09;;;17.97;54.25
3960;BME280;1994;48.640;8.894;2023-03-23T13:53:44;95540.94;;;18.13;54.02
3960;BME280;1994;48.640;8.894;2023-03-23T13:56:20;95547.09;;;17.95;53.24
3960;BME280;1994;48.640;8.894;2023-03-23T13:59:15;95559.59;;;17.44;53.83
3960;BME280;1994;48.640;8.894;2023-03-23T14:01:42;95539.78;;;17.38;53.27
3960;BME280;1994;48.640;8.894;2023-03-23T14:04:16;95541.91;;;17.36;53.99
3960;BME280;1994;48.640;8.894;2023-03-23T14:06:45;95533.75;;;17.24;53.82
3960;BME280;1994;48.640;8.894;2023-03-23T14:09:40;95535.28;;;17.25;53.55
3960;BME280;1994;48.640;8.894;2023-03-23T14:12:21;95531.81;;;17.29;53.59
3960;BME280;1994;48.640;8.894;2023-03-23T14:14:51;95520.25;;;17.17;54.10
3960;BME280;1994;48.640;8.894;2023-03-23T14:17:29;95517.06;;;17.33;54.29
3960;BME280;1994;48.640;8.894;2023-03-23T14:19:58;95516.50;;;17.23;54.21
3960;BME280;1994;48.640;8.894;2023-03-23T14:22:33;95520.19;;;17.22;53.02
3960;BME280;1994;48.640;8.894;2023-03-23T14:25:13;95507.47;;;17.29;53.46
3960;BME280;1994;48.640;8.894;2023-03-23T14:27:40;95511.63;;;17.30;53.95
3960;BME280;1994;48.640;8.894;2023-03-23T14:30:14;95517.84;;;17.34;53.58
3960;BME280;1994;48.640;8.894;2023-03-23T14:32:40;95512.97;;;17.14;54.90
3960;BME280;1994;48.640;8.894;2023-03-23T14:37:47;95520.94;;;17.22;54.26
3960;BME280;1994;48.640;8.894;2023-03-23T14:40:16;95525.59;;;17.12;53.51
3960;BME280;1994;48.640;8.894;2023-03-23T14:42:43;95509.50;;;17.18;52.90
3960;BME280;1994;48.640;8.894;2023-03-23T14:45:18;95520.91;;;17.09;53.07
3960;BME280;1994;48.640;8.894;2023-03-23T14:47:52;95518.81;;;17.11;53.42
3960;BME280;1994;48.640;8.894;2023-03-23T14:50:39;95519.09;;;17.23;52.31
3960;BME280;1994;48.640;8.894;2023-03-23T14:53:25;95519.84;;;17.10;52.49
3960;BME280;1994;48.640;8.894;2023-03-23T14:55:55;95523.84;;;17.21;52.36
3960;BME280;1994;48.640;8.894;2023-03-23T14:58:23;95518.78;;;16.97;50.99
3960;BME280;1994;48.640;8.894;2023-03-23T15:01:03;95505.06;;;16.87;51.67
3960;BME280;1994;48.640;8.894;2023-03-23T15:03:37;95501.88;;;16.90;51.46
3960;BME280;1994;48.640;8.894;2023-03-23T15:06:12;95516.84;;;17.03;51.81
3960;BME280;1994;48.640;8.894;2023-03-23T15:08:39;95525.44;;;16.90;52.29
3960;BME280;1994;48.640;8.894;2023-03-23T15:11:29;95522.25;;;17.06;51.90
3960;BME280;1994;48.640;8.894;2023-03-23T15:13:59;95520.28;;;16.85;51.81
3960;BME280;1994;48.640;8.894;2023-03-23T15:16:33;95542.75;;;16.86;52.13
3960;BME280;1994;48.640;8.894;2023-03-23T15:19:11;95528.88;;;16.85;52.03
3960;BME280;1994;48.640;8.894;2023-03-23T15:21:57;95527.53;;;16.88;51.84
3960;BME280;1994;48.640;8.894;2023-03-23T15:24:41;95525.91;;;16.92;51.56
3960;BME280;1994;48.640;8.894;2023-03-23T15:27:16;95540.06;;;16.91;51.75
3960;BME280;1994;48.640;8.894;2023-03-23T15:29:58;95551.28;;;16.78;51.48
3960;BME280;1994;48.640;8.894;2023-03-23T15:32:38;95542.34;;;16.79;51.93